Celebrity Century — 9HJI9 — position and weather

sailwx.info

Track history (hours):
 
Tides and Currents Weather Stations Pressure Air Temp Water Temp Dewpoint Dewpoint Depression Visibility Wind Speed Wind Dir Waves Ship Positions

Celebrity Century

Last reported at 2016-Feb-09 09:33 UTC. Time now 2016-Feb-11 23:25 UTC.
Position N 31°16' E 121°52'.

Length 252 m; draft 7.9 m.

Type: Ship. MMSI: 249054000.

Date/timePositionNaut miles runAvg speedWind from/ knotsBaromVisibWave heightAir tempDewpointWater temp
2016-Feb-09 09:33N 31°16' E 121°52'1313.4
2016-Feb-09 08:33N 31°22' E 121°38'7 7.1
2016-Feb-09 07:32N 31°25' E 121°30'0 0.0
2016-Feb-09 06:32N 31°25' E 121°30'0 0.0
2016-Feb-09 05:26N 31°25' E 121°30'0 0.0
2016-Feb-09 04:32N 31°25' E 121°30'0 0.0
2016-Feb-09 03:32N 31°25' E 121°30'0 0.0
2016-Feb-09 02:32N 31°25' E 121°30'0 0.0
2016-Feb-09 01:32N 31°25' E 121°30'0 0.0
2016-Feb-09 00:32N 31°25' E 121°30'0 0.0
2016-Feb-08 22:32N 31°25' E 121°30'0 0.0
2016-Feb-08 21:32N 31°25' E 121°30'0 0.0
2016-Feb-08 20:32N 31°25' E 121°30'0 0.0
2016-Feb-08 19:32N 31°25' E 121°30'0 0.0
2016-Feb-08 18:32N 31°25' E 121°30'0 0.0
2016-Feb-08 17:20N 31°25' E 121°30'0 0.0
2016-Feb-08 16:33N 31°25' E 121°30'7 7.1
2016-Feb-08 15:33N 31°22' E 121°38'1110.8
2016-Feb-08 14:33N 31°17' E 121°50'1010.1
2016-Feb-08 13:31N 31°15' E 122°01'9 9.6
2016-Feb-08 12:33N 31°10' E 122°11'42116.6
2016-Feb-07 11:10N 33°40' E 129°58'1016.9
2016-Feb-07 10:33N 33°45' E 130°09'1312.6
2016-Feb-07 09:33N 33°38' E 130°21'2 2.3
2016-Feb-07 08:33N 33°37' E 130°24'0 0.0
2016-Feb-07 07:32N 33°37' E 130°24'0 0.0
2016-Feb-07 06:32N 33°37' E 130°24'0 0.0
2016-Feb-07 05:33N 33°37' E 130°24'0 0.0
2016-Feb-07 04:33N 33°37' E 130°24'0 0.0
2016-Feb-07 03:32N 33°37' E 130°24'0 0.0
2016-Feb-07 02:33N 33°37' E 130°24'0 0.0
2016-Feb-07 01:33N 33°37' E 130°24'0 0.0
2016-Feb-07 00:33N 33°37' E 130°24'0 0.0
2016-Feb-06 23:32N 33°37' E 130°24'0 0.0
2016-Feb-06 22:33N 33°37' E 130°24'3 3.5
2016-Feb-06 21:33N 33°38' E 130°20'9 8.8
2016-Feb-06 20:33N 33°45' E 130°14'  
2016-Feb-04 09:09N 31°16' E 121°54'1014.1
2016-Feb-04 08:25N 31°19' E 121°43'1011.9
2016-Feb-04 07:33N 31°24' E 121°32'1 0.2
2016-Feb-03 22:28N 31°25' E 121°30'2 2.1
2016-Feb-03 21:33N 31°24' E 121°33'1211.9
2016-Feb-03 20:33N 31°19' E 121°45'44313.0
2016-Feb-02 10:34N 33°41' E 130°03'1110.8
2016-Feb-02 09:32N 33°41' E 130°16'8 1.0
2016-Feb-02 01:29N 33°37' E 130°24'0 0.0
2016-Feb-02 00:29N 33°37' E 130°24'0 0.0
2016-Feb-01 23:33N 33°37' E 130°24'0 0.1
2016-Feb-01 22:32N 33°37' E 130°24'6 6.2
2016-Feb-01 21:33N 33°39' E 130°17'1111.4
2016-Feb-01 20:33N 33°42' E 130°04'1515.0
2016-Feb-01 19:33N 33°39' E 129°46'43112.3
2016-Jan-31 08:31N 31°19' E 121°43'1111.8
2016-Jan-31 07:33N 31°25' E 121°31'1 0.8
2016-Jan-31 06:33N 31°25' E 121°30'0 0.0
2016-Jan-31 05:21N 31°25' E 121°30'0 0.0
2016-Jan-31 04:33N 31°25' E 121°30'0 0.0
2016-Jan-31 03:21N 31°25' E 121°30'0 0.0
2016-Jan-31 01:33N 31°25' E 121°30'0 0.0
2016-Jan-31 00:33N 31°25' E 121°30'0 0.0
2016-Jan-30 23:33N 31°25' E 121°30'0 0.0
2016-Jan-30 22:30N 31°25' E 121°30'2 2.4
2016-Jan-30 21:33N 31°24' E 121°33'1111.2
2016-Jan-30 20:33N 31°19' E 121°44'1111.0
2016-Jan-30 19:33N 31°15' E 121°57'  
Track history (hours):
 
Tides and Currents Weather Stations Pressure Air Temp Water Temp Dewpoint Dewpoint Depression Visibility Wind Speed Wind Dir Waves Ship Positions

Celebrity Century

Last reported at 2016-Feb-09 09:33 UTC. Time now 2016-Feb-11 23:25 UTC.
Position N 31°16' E 121°52'.

Length 252 m; draft 7.9 m.

Type: Ship. MMSI: 249054000.

Date/timePositionNaut miles runAvg speedWind from/ knotsBaromVisibWave heightAir tempDewpointWater temp
2016-Feb-09 09:33N 31°16' E 121°52'1313.4
2016-Feb-09 08:33N 31°22' E 121°38'7 7.1
2016-Feb-09 07:32N 31°25' E 121°30'0 0.0
2016-Feb-09 06:32N 31°25' E 121°30'0 0.0
2016-Feb-09 05:26N 31°25' E 121°30'0 0.0
2016-Feb-09 04:32N 31°25' E 121°30'0 0.0
2016-Feb-09 03:32N 31°25' E 121°30'0 0.0
2016-Feb-09 02:32N 31°25' E 121°30'0 0.0
2016-Feb-09 01:32N 31°25' E 121°30'0 0.0
2016-Feb-09 00:32N 31°25' E 121°30'0 0.0
2016-Feb-08 22:32N 31°25' E 121°30'0 0.0
2016-Feb-08 21:32N 31°25' E 121°30'0 0.0
2016-Feb-08 20:32N 31°25' E 121°30'0 0.0
2016-Feb-08 19:32N 31°25' E 121°30'0 0.0
2016-Feb-08 18:32N 31°25' E 121°30'0 0.0
2016-Feb-08 17:20N 31°25' E 121°30'0 0.0
2016-Feb-08 16:33N 31°25' E 121°30'7 7.1
2016-Feb-08 15:33N 31°22' E 121°38'1110.8
2016-Feb-08 14:33N 31°17' E 121°50'1010.1
2016-Feb-08 13:31N 31°15' E 122°01'9 9.6
2016-Feb-08 12:33N 31°10' E 122°11'42116.6
2016-Feb-07 11:10N 33°40' E 129°58'1016.9
2016-Feb-07 10:33N 33°45' E 130°09'1312.6
2016-Feb-07 09:33N 33°38' E 130°21'2 2.3
2016-Feb-07 08:33N 33°37' E 130°24'0 0.0
2016-Feb-07 07:32N 33°37' E 130°24'0 0.0
2016-Feb-07 06:32N 33°37' E 130°24'0 0.0
2016-Feb-07 05:33N 33°37' E 130°24'0 0.0
2016-Feb-07 04:33N 33°37' E 130°24'0 0.0
2016-Feb-07 03:32N 33°37' E 130°24'0 0.0
2016-Feb-07 02:33N 33°37' E 130°24'0 0.0
2016-Feb-07 01:33N 33°37' E 130°24'0 0.0
2016-Feb-07 00:33N 33°37' E 130°24'0 0.0
2016-Feb-06 23:32N 33°37' E 130°24'0 0.0
2016-Feb-06 22:33N 33°37' E 130°24'3 3.5
2016-Feb-06 21:33N 33°38' E 130°20'9 8.8
2016-Feb-06 20:33N 33°45' E 130°14'  
2016-Feb-04 09:09N 31°16' E 121°54'1014.1
2016-Feb-04 08:25N 31°19' E 121°43'1011.9
2016-Feb-04 07:33N 31°24' E 121°32'1 0.2
2016-Feb-03 22:28N 31°25' E 121°30'2 2.1
2016-Feb-03 21:33N 31°24' E 121°33'1211.9
2016-Feb-03 20:33N 31°19' E 121°45'44313.0
2016-Feb-02 10:34N 33°41' E 130°03'1110.8
2016-Feb-02 09:32N 33°41' E 130°16'8 1.0
2016-Feb-02 01:29N 33°37' E 130°24'0 0.0
2016-Feb-02 00:29N 33°37' E 130°24'0 0.0
2016-Feb-01 23:33N 33°37' E 130°24'0 0.1
2016-Feb-01 22:32N 33°37' E 130°24'6 6.2
2016-Feb-01 21:33N 33°39' E 130°17'1111.4
2016-Feb-01 20:33N 33°42' E 130°04'1515.0
2016-Feb-01 19:33N 33°39' E 129°46'43112.3
2016-Jan-31 08:31N 31°19' E 121°43'1111.8
2016-Jan-31 07:33N 31°25' E 121°31'1 0.8
2016-Jan-31 06:33N 31°25' E 121°30'0 0.0
2016-Jan-31 05:21N 31°25' E 121°30'0 0.0
2016-Jan-31 04:33N 31°25' E 121°30'0 0.0
2016-Jan-31 03:21N 31°25' E 121°30'0 0.0
2016-Jan-31 01:33N 31°25' E 121°30'0 0.0
2016-Jan-31 00:33N 31°25' E 121°30'0 0.0
2016-Jan-30 23:33N 31°25' E 121°30'0 0.0
2016-Jan-30 22:30N 31°25' E 121°30'2 2.4
2016-Jan-30 21:33N 31°24' E 121°33'1111.2
2016-Jan-30 20:33N 31°19' E 121°44'1111.0
2016-Jan-30 19:33N 31°15' E 121°57'  

Dump ship's entire track history